Crafers weather station

 Latitude S 34° 59' 22"    Longitude E 138° 43' 40"    Elevation 500 m

The forecast and data used is specifically for Crafers only so these values only apply to this specific area and may differ from the rest of the Mt Lofty Ranges region. The summary bar hi-lights today's prediction rather than yesterdays value. This has not been applied to other CumulusUtils FWI sites.
Legend:
Low-Mod (0-210)
Severe (490 - 630)

High (210 - 350)
Extreme (630 - 800)

Very High (350 - 490)
Catastrophic (800+)


 
302.81
Date Temp. (°C) Wind Speed (km/h) Rain (mm) RH Days Since Rain pwsFWI
Prediction is active (including today!), values are above red line.
26/01/22 25.00 15.00 1.50 0.71 0 61.90
25/01/22 26.00 12.00 5.80 0.70 0 154.60
24/01/22 27.00 17.00 3.90 0.60 0 216.55
23/01/22 23.00 19.00 7.50 0.64 0 239.94
22/01/22 27.00 25.00 6.10 0.35 0 302.81
21/01/22 32.00 8.60 0.60 0.41 0 314.09
20/01/22 30.80 14.80 0.00 0.25 12 311.11
19/01/22 25.70 12.20 0.00 0.43 11 228.94
18/01/22 22.20 13.30 0.00 0.51 10 204.16
17/01/22 25.80 11.20 0.00 0.50 9 224.60
16/01/22 33.50 7.20 0.00 0.33 8 269.44
15/01/22 30.90 6.10 0.00 0.39 7 285.12
14/01/22 24.50 7.20 0.00 0.61 6 282.92
13/01/22 25.50 7.20 0.00 0.53 5 275.84
12/01/22 37.10 7.20 0.00 0.38 4 241.66
11/01/22 36.80 9.70 0.00 0.31 3 184.42
10/01/22 36.20 7.20 0.00 0.23 2 100.46
09/01/22 32.10 5.00 0.00 0.33 1 32.97
08/01/22 23.30 6.10 0.20 0.68 0 36.52
07/01/22 16.40 7.20 6.90 0.97 0 56.62
06/01/22 14.10 6.10 3.20 0.99 0 96.04
06/01/22 19.20 8.60 3.20 0.90 0 136.57
05/01/22 15.60 9.70 6.20 0.89 0 245.60
04/01/22 22.20 9.70 0.00 0.51 14 319.73
03/01/22 24.20 9.70 0.00 0.47 13 373.16
02/01/22 32.90 6.10 0.00 0.35 12 376.97
01/01/22 32.80 5.00 0.00 0.22 11 361.64
31/12/21 38.10 9.70 0.00 0.15 10 356.96
30/12/21 37.30 6.10 0.00 0.21 9 279.73
29/12/21 32.50 11.20 0.00 0.27 8 280.18
28/12/21 25.40 9.70 0.00 0.43 7 241.33
27/12/21 20.80 11.20 0.00 0.54 6 231.88
26/12/21 21.60 14.80 0.00 0.54 5 244.43
25/12/21 24.10 13.30 0.00 0.58 4 232.24
24/12/21 32.70 8.60 0.00 0.26 3 224.71
23/12/21 29.30 8.60 0.00 0.40 2 206.52
22/12/21 26.80 7.20 0.00 0.46 1 257.65
21/12/21 27.40 7.20 0.20 0.26 0 265.16
20/12/21 24.50 7.20 0.00 0.46 2 248.91
19/12/21 21.50 11.20 0.00 0.53 1 224.06
18/12/21 30.20 7.20 0.10 0.26 0 217.24
17/12/21 36.40 9.70 0.00 0.20 3 181.98
16/12/21 30.10 6.10 0.00 0.31 2 123.35
15/12/21 25.10 6.10 0.00 0.47 1 108.83
14/12/21 28.60 7.20 1.20 0.41 0 118.40
13/12/21 25.20 5.00 0.70 0.34 0 123.15
12/12/21 30.50 1.10 0.00 0.23 5 125.64
11/12/21 29.90 6.10 0.00 0.29 4 160.47
10/12/21 21.10 8.60 0.00 0.48 3 153.73
09/12/21 16.90 9.70 0.00 0.61 2 151.14
08/12/21 16.40 12.20 0.00 0.53 1 160.32
07/12/21 19.10 8.60 0.20 0.51 0 166.00
06/12/21 27.40 8.60 0.20 0.31 0 209.54
05/12/21 25.90 7.20 0.00 0.36 11 195.35
04/12/21 21.20 8.60 0.00 0.52 10 168.85
03/12/21 25.10 7.20 0.00 0.46 9 257.50
02/12/21 28.20 7.20 0.00 0.49 8 277.84
01/12/21 32.50 8.60 0.00 0.26 7 269.12
30/11/21 32.00 2.50 0.00 0.24 6 222.71
29/11/21 28.30 0.00 0.00 0.32 5 203.68
29/11/21 29.40 17.30 0.00 0.22 4 208.01
28/11/21 26.40 8.60 0.00 0.22 3 86.08
27/11/21 21.20 8.60 0.00 0.53 2 39.02
26/11/21 15.90 12.20 0.00 0.62 1 48.32
25/11/21 20.00 12.20 2.90 0.67 0 49.46
24/11/21 21.70 9.70 0.80 0.79 0 41.15
23/11/21 21.50 6.10 12.70 0.69 0 99.05
22/11/21 25.10 6.10 2.00 0.38 0 159.51
21/11/21 19.40 14.80 0.00 0.54 1 159.58
20/11/21 14.30 9.70 0.10 0.70 0 137.45
19/11/21 13.90 6.10 6.30 0.80 0 142.42
18/11/21 28.50 11.20 0.10 0.25 0 127.98
17/11/21 27.20 9.70 0.00 0.26 1 63.76
16/11/21 17.70 6.10 0.10 0.55 0 11.09
15/11/21 13.80 8.60 1.70 0.78 0 34.89
14/11/21 13.90 12.20 1.00 0.66 0 68.02
13/11/21 16.00 15.80 8.50 0.56 0 77.13
12/11/21 12.50 8.60 1.20 0.73 0 84.22
11/11/21 10.20 18.40 16.40 0.74 0 84.83
10/11/21 16.60 18.40 0.00 0.54 1 81.86
09/11/21 22.20 8.60 0.30 0.50 0 73.89
08/11/21 19.90 6.10 0.00 0.51 2 66.81
07/11/21 19.50 6.10 0.00 0.56 1 51.95
06/11/21 26.10 6.10 1.80 0.54 0 87.25
05/11/21 28.40 7.20 1.20 0.24 0 139.48
04/11/21 22.60 8.60 0.00 0.47 1 132.55
03/11/21 20.90 9.70 1.00 0.71 0 118.52
02/11/21 30.30 7.20 1.10 0.25 0 116.00
01/11/21 26.80 7.20 0.00 0.23 3 95.74
31/10/21 24.30 9.70 0.00 0.31 2 97.74
30/10/21 16.80 7.20 0.00 0.52 1 82.47
29/10/21 16.20 7.20 0.10 0.55 0 98.26
28/10/21 19.70 13.30 12.40 0.67 0 110.26
27/10/21 27.20 8.60 3.90 0.19 0 156.28
26/10/21 27.20 7.20 0.00 0.19 4 152.60
25/10/21 22.30 7.20 0.00 0.32 3 139.68
24/10/21 17.40 9.70 0.00 0.53 2 137.25
23/10/21 17.30 9.70 0.00 0.55 1 136.57
22/10/21 23.70 8.60 0.10 0.45 0 140.95
21/10/21 21.30 8.60 0.00 0.60 1 122.14
20/10/21 21.10 8.60 0.10 0.30 0 113.79
19/10/21 19.70 9.70 0.40 0.44 0 73.70
18/10/21 22.50 7.20 0.00 0.53 3 61.86
17/10/21 21.60 8.60 0.00 0.49 2 42.46
16/10/21 16.20 6.10 0.00 0.65 1 32.15
15/10/21 15.20 9.70 0.10 0.70 0 34.85
14/10/21 13.20 9.70 19.10 0.72 0 52.60
13/10/21 13.20 9.70 5.60 0.74 0 81.97
12/10/21 20.20 7.20 3.80 0.36 0 103.86
11/10/21 13.60 9.70 0.00 0.56 1 144.51
10/10/21 14.40 8.60 0.10 0.59 0 143.81
09/10/21 21.50 7.20 0.00 0.32 5 123.70
08/10/21 20.60 8.60 0.00 0.29 4 111.22
07/10/21 15.10 8.60 0.00 0.54 3 80.66
06/10/21 23.90 12.20 0.00 0.30 2 69.61
05/10/21 16.60 7.20 0.00 0.50 1 18.07
04/10/21 10.60 12.20 6.90 0.82 0 5.37
03/10/21 12.10 14.80 9.20 0.81 0 41.52
02/10/21 19.80 8.60 4.60 0.60 0 70.50
01/10/21 13.70 8.60 0.10 0.87 0 90.01
30/09/21 11.70 11.20 3.70 0.98 0 95.82
29/09/21 21.40 9.70 19.40 0.58 0 102.41
28/09/21 21.80 9.70 0.00 0.30 4 115.29
27/09/21 21.70 6.10 0.00 0.25 3 83.71
26/09/21 19.90 9.70 0.00 0.39 2 59.02
25/09/21 13.00 8.60 0.00 0.65 1 30.58
24/09/21 14.30 12.20 1.20 0.70 0 26.54
23/09/21 18.20 8.60 0.00 0.56 2 22.58
22/09/21 13.80 6.10 0.00 0.75 1 48.34
21/09/21 12.10 9.70 1.70 0.70 0 73.49
20/09/21 11.90 13.30 3.60 0.72 0 93.93
19/09/21 15.20 9.70 10.70 0.63 0 100.03
18/09/21 12.90 11.20 2.20 0.70 0 109.78
17/09/21 22.70 11.20 0.70 0.31 0 95.91
16/09/21 22.40 7.20 0.10 0.31 0 53.37
15/09/21 18.80 8.60 0.00 0.48 2 74.18
14/09/21 13.50 6.10 0.00 0.62 1 103.11
13/09/21 13.70 8.60 0.10 0.67 0 142.15
12/09/21 11.70 13.30 7.60 0.81 0 145.14
11/09/21 17.50 8.60 4.30 0.71 0 151.35
10/09/21 25.20 8.60 0.00 0.17 4 159.08
09/09/21 22.90 11.20 0.00 0.21 3 112.42
08/09/21 20.30 11.20 0.00 0.28 2 62.13
07/09/21 17.60 6.10 0.00 0.61 1 100.05
06/09/21 13.50 5.00 0.40 0.77 0 127.22
05/09/21 12.50 9.70 0.70 0.69 0 142.59
04/09/21 11.30 9.70 1.10 0.79 0 159.23
03/09/21 13.70 7.20 5.30 0.69 0 164.41
02/09/21 28.00 13.30 0.20 0.23 0 156.51
01/09/21 25.60 7.20 0.00 0.20 4 96.90
31/08/21 20.10 7.20 0.00 0.44 3 70.86
30/08/21 15.90 11.20 0.00 0.44 2 81.52
29/08/21 12.80 6.10 0.00 0.69 1 129.76
28/08/21 13.60 14.80 10.90 0.63 0 128.86
27/08/21 14.90 7.20 0.00 0.44 2 125.18
26/08/21 11.80 11.20 0.00 0.59 1 124.17
25/08/21 22.60 8.60 0.20 0.35 0 129.35
24/08/21 23.90 11.20 0.50 0.00 0 105.31
23/08/21 10.00 11.20 2.50 0.71 0 51.87
22/08/21 19.50 8.60 6.30 0.46 0 63.56
21/08/21 17.30 7.20 0.00 0.52 4 63.54
20/08/21 15.00 7.20 0.00 0.23 3 63.83
19/08/21 15.00 2.50 0.00 0.23 2 59.15
18/08/21 15.60 6.10 0.00 0.59 1 53.56
17/08/21 15.30 6.10 0.10 0.59 0 43.71
16/08/21 11.50 6.10 0.40 0.82 0 35.03
15/08/21 16.30 7.20 0.30 0.44 0 32.06
14/08/21 15.90 8.60 0.10 0.51 0 38.90
13/08/21 14.00 3.60 0.10 0.83 0 32.69
12/08/21 12.50 6.10 3.00 0.92 0 34.78
11/08/21 9.70 8.60 15.90 0.85 0 35.10
10/08/21 16.50 12.20 6.40 0.33 0 44.28
09/08/21 17.00 9.70 0.00 0.42 2 36.07
08/08/21 15.10 6.10 0.00 0.57 1 13.32
07/08/21 13.20 5.00 0.40 0.78 0 3.33
06/08/21 12.00 7.20 2.80 0.84 0 13.89
05/08/21 10.70 7.20 5.70 0.95 0 0.31
04/08/21 10.90 8.60 5.60 0.89 0 16.91
03/08/21 10.00 13.30 5.20 0.69 0 34.26
02/08/21 12.80 13.30 12.30 0.51 0 44.78
01/08/21 12.60 8.60 0.00 0.51 1 51.64
31/07/21 13.50 9.70 14.00 0.71 0 53.52
30/07/21 15.90 9.70 0.00 0.54 2 40.37
29/07/21 14.60 9.70 0.00 0.54 1 35.54
28/07/21 10.70 11.20 5.00 0.74 0 7.48
27/07/21 17.30 8.60 3.30 0.44 0 21.74
26/07/21 14.10 7.20 0.00 0.47 1 13.25
25/07/21 10.00 12.20 15.20 0.97 0 12.86
24/07/21 7.40 12.20 19.70 0.97 0 0.25
23/07/21 10.20 12.20 8.60 0.90 0 5.87
22/07/21 6.20 6.10 11.80 0.96 0 5.01
21/07/21 11.30 5.00 1.90 0.65 0 7.20
20/07/21 10.60 13.30 0.10 0.63 0 17.42
19/07/21 9.40 11.20 10.10 0.89 0 9.84
18/07/21 11.40 8.60 0.30 0.79 0 4.86
17/07/21 8.50 8.60 3.40 0.84 0 5.54
16/07/21 9.20 13.30 26.10 0.82 0 19.17
15/07/21 14.20 13.30 17.00 0.73 0 27.10
14/07/21 13.00 12.20 0.20 0.89 0 24.26
13/07/21 14.70 9.70 10.80 0.63 0 30.57
12/07/21 10.20 6.10 9.90 0.97 0 34.04
11/07/21 13.30 9.70 0.80 0.55 0 39.54
10/07/21 16.10 3.60 0.00 0.55 1 29.32
09/07/21 10.60 2.50 0.70 0.84 0 26.30
08/07/21 15.20 3.60 0.00 0.49 4 29.28
07/07/21 14.30 5.00 0.00 0.55 3 21.95
06/07/21 12.90 5.00 0.00 0.62 2 13.63
05/07/21 9.80 3.60 0.00 0.76 1 17.84
04/07/21 11.90 5.00 0.10 0.72 0 24.65
03/07/21 9.30 6.10 1.30 0.80 0 26.05
02/07/21 8.30 5.00 5.80 0.82 0 21.41
01/07/21 12.80 7.20 8.50 0.78 0 26.18
30/06/21 15.70 6.10 0.30 0.50 0 20.76
29/06/21 14.90 6.10 0.00 0.52 2 15.76
28/06/21 14.80 5.00 0.00 0.77 1 4.86
27/06/21 11.30 3.60 7.40 0.96 0 0.13
26/06/21 9.30 9.70 12.40 0.90 0 10.80
25/06/21 9.70 7.20 9.00 0.97 0 16.23
24/06/21 9.50 12.20 13.70 0.93 0 16.73
23/06/21 9.20 14.80 15.70 0.78 0 18.58
22/06/21 13.50 9.70 6.20 0.65 0 19.55
21/06/21 15.00 7.20 0.00 0.59 2 18.06
20/06/21 14.70 5.00 0.00 0.64 1 7.01
19/06/21 11.30 6.10 1.50 0.96 0 8.67
18/06/21 23.90 11.20 2.40 0.35 0 35.89
17/06/21 13.10 9.70 23.70 0.89 0 17.38
16/06/21 6.00 9.70 9.00 0.98 0 17.48
15/06/21 16.40 9.70 19.40 0.68 0 23.97
14/06/21 18.20 5.00 0.00 0.60 1 27.35
13/06/21 16.70 3.60 0.10 0.56 0 11.78
12/06/21 11.60 3.60 0.00 0.80 1 13.00
11/06/21 12.60 3.60 0.10 0.90 0 21.12
10/06/21 10.10 8.60 0.40 0.87 0 20.40
09/06/21 9.80 11.20 0.40 0.77 0 24.94
08/06/21 9.60 9.70 7.60 0.83 0 12.72
07/06/21 17.60 11.20 21.40 0.57 0 23.08
06/06/21 15.30 13.30 0.10 0.76 0 16.64
05/06/21 11.60 6.10 0.80 0.98 0 16.94
04/06/21 14.20 6.10 0.20 0.63 0 35.92
03/06/21 15.10 7.20 7.20 0.75 0 40.92
02/06/21 20.30 2.50 0.10 0.56 0 42.41
01/06/21 19.00 5.00 1.40 0.45 0 49.49
31/05/21 13.10 6.10 0.00 0.38 4 47.46
30/05/21 17.30 5.00 0.00 0.39 3 35.08
29/05/21 12.70 9.70 0.00 0.64 2 22.06
28/05/21 12.50 7.20 0.00 0.83 1 14.75
27/05/21 15.40 7.20 0.10 0.75 0 32.28
26/05/21 15.10 11.20 2.50 0.67 0 48.43
25/05/21 11.50 12.20 4.60 0.86 0 61.66
24/05/21 21.30 12.20 18.60 0.39 0 88.81
23/05/21 16.10 2.50 0.00 0.57 9 95.16
22/05/21 21.90 6.10 0.00 0.31 8 97.16
21/05/21 23.60 3.60 0.00 0.23 7 80.28
20/05/21 21.60 5.00 0.00 0.33 6 69.89
19/05/21 17.60 8.60 0.00 0.51 5 51.64
18/05/21 16.60 6.10 0.00 0.57 4 33.72
17/05/21 14.70 6.10 0.00 0.66 3 32.03
16/05/21 13.90 6.10 0.00 0.68 2 26.90
15/05/21 12.50 8.60 0.00 0.73 1 19.71
14/05/21 13.50 9.70 2.10 0.15 0 24.73
13/05/21 11.70 9.70 8.90 0.87 0 13.15
12/05/21 16.10 7.20 0.10 0.65 0 21.52
11/05/21 10.80 7.20 0.60 0.85 0 24.61
10/05/21 13.00 11.20 1.90 0.89 0 32.72
09/05/21 14.00 7.20 12.90 0.86 0 42.10
08/05/21 17.10 3.60 12.60 0.81 0 50.70
07/05/21 20.80 3.60 0.00 0.46 2 61.56
06/05/21 19.60 5.00 0.00 0.46 1 84.66
05/05/21 15.60 6.10 0.10 0.58 0 101.91
04/05/21 14.00 8.60 0.00 0.63 1 113.13
03/05/21 17.80 7.20 0.50 0.70 0 122.36
02/05/21 19.20 6.10 0.00 0.64 7 129.56
01/05/21 26.40 7.20 0.00 0.32 6 135.19
30/04/21 25.70 6.10 0.00 0.24 5 110.55
29/04/21 24.20 5.00 0.00 0.36 4 87.14
28/04/21 21.90 7.20 0.00 0.46 3 72.36
27/04/21 21.10 3.60 0.00 0.50 2 50.98
26/04/21 21.30 7.20 0.00 0.55 1 40.99
25/04/21 20.30 5.00 0.10 0.58 0 23.62
24/04/21 17.70 6.10 0.00 0.67 2 20.83
23/04/21 16.70 5.00 0.00 0.71 1 11.70
22/04/21 15.80 8.60 1.20 0.13 0 35.20
21/04/21 14.20 5.00 5.30 0.63 0 28.10
20/04/21 14.10 8.60 1.30 0.72 0 41.55
19/04/21 15.80 5.00 0.60 0.71 0 37.68
18/04/21 15.40 5.00 1.20 0.70 0 35.11
17/04/21 18.30 8.60 0.10 0.54 0 62.54
16/04/21 17.50 3.60 0.00 0.70 1 61.20
15/04/21 19.30 7.20 0.80 0.64 0 71.63
14/04/21 18.50 8.60 1.40 0.61 0 67.18
13/04/21 22.00 11.20 7.80 0.27 0 74.43
12/04/21 20.10 9.70 0.00 0.34 2 102.86
11/04/21 15.90 8.60 0.00 0.54 1 102.82
10/04/21 16.70 12.20 0.60 0.66 0 111.13
09/04/21 20.50 8.60 2.00 0.49 0 170.59
08/04/21 30.00 7.20 1.10 0.23 0 221.31
07/04/21 30.00 6.10 0.00 0.21 11 267.13
06/04/21 25.80 7.20 0.00 0.35 10 267.98
05/04/21 24.00 7.20 0.00 0.45 9 278.39
04/04/21 32.50 8.60 0.00 0.23 8 281.43
03/04/21 32.60 5.00 0.00 0.23 7 235.74
02/04/21 32.70 7.20 0.00 0.18 6 215.26
01/04/21 31.00 6.10 0.00 0.22 5 155.97
31/03/21 29.90 7.20 0.00 0.30 4 112.31
30/03/21 26.90 6.10 0.00 0.36 3 78.92
29/03/21 24.60 6.10 0.00 0.47 2 50.31
28/03/21 20.60 8.60 0.00 0.56 1 70.43
27/03/21 19.90 6.10 1.20 0.61 0 83.37
26/03/21 21.60 6.10 1.70 0.55 0 124.32
25/03/21 18.80 6.10 0.00 0.62 1 183.59
24/03/21 20.30 8.60 1.10 0.67 0 230.83
23/03/21 25.30 11.20 0.10 0.43 0 276.79
22/03/21 29.50 5.00 0.00 0.35 6 275.19
21/03/21 29.90 7.20 0.00 0.35 5 261.13
20/03/21 29.00 12.20 0.00 0.33 4 228.00
19/03/21 27.40 12.20 0.00 0.42 3 183.99
18/03/21 27.30 11.20 0.00 0.35 2 131.46
17/03/21 27.90 7.20 0.00 0.38 1 77.75
16/03/21 22.20 6.10 0.10 0.58 0 63.42
15/03/21 18.60 5.00 0.70 0.66 0 49.74
14/03/21 19.90 8.60 0.00 0.44 1 63.25
13/03/21 16.90 9.70 4.90 0.64 0 69.49
12/03/21 30.50 9.70 1.40 0.28 0 125.33
11/03/21 27.50 5.00 0.00 0.45 1 95.90
10/03/21 26.70 6.10 2.90 0.43 0 118.22
09/03/21 23.00 7.20 0.00 0.51 2 135.89
08/03/21 22.80 8.60 0.00 0.52 1 153.32
07/03/21 29.50 6.10 0.60 0.36 0 164.39
06/03/21 28.60 6.10 1.40 0.29 0 178.41
05/03/21 25.70 9.70 0.00 0.51 7 201.27
04/03/21 24.50 7.20 0.00 0.37 6 199.96
03/03/21 22.10 12.20 0.00 0.41 5 182.17
02/03/21 19.80 13.30 0.00 0.43 4 168.22
01/03/21 23.20 11.20 0.00 0.54 3 150.39
28/02/21 28.80 6.10 0.00 0.32 2 144.29
27/02/21 28.10 6.10 0.00 0.33 1 147.76
26/02/21 20.80 5.00 0.10 0.55 0 150.91
25/02/21 20.80 11.20 1.00 0.54 0 174.15
24/02/21 21.50 6.10 0.00 0.42 17 220.47
23/02/21 19.50 9.70 0.00 0.45 16 285.33
22/02/21 21.90 14.80 0.00 0.52 15 340.06
21/02/21 25.40 9.70 0.00 0.44 14 352.48
20/02/21 30.70 7.20 0.00 0.46 13 355.69
19/02/21 36.10 6.10 0.00 0.25 12 340.92
18/02/21 35.50 9.70 0.00 0.25 11 298.78
17/02/21 36.30 8.60 0.00 0.23 10 236.58
16/02/21 35.00 6.10 0.00 0.26 9 218.74
15/02/21 28.60 7.20 0.00 0.30 8 198.55
14/02/21 23.60 7.20 0.00 0.51 7 181.94
13/02/21 21.70 7.20 0.00 0.64 6 179.20
12/02/21 21.10 9.70 0.00 0.53 5 172.36
11/02/21 34.00 8.60 0.00 0.31 4 148.60
10/02/21 34.30 3.60 0.00 0.19 3 84.59
09/02/21 28.00 5.00 0.00 0.37 2 52.10
08/02/21 21.80 7.20 0.00 0.50 1 67.90
07/02/21 18.10 6.10 0.20 0.70 0 80.83
06/02/21 16.60 9.70 3.70 0.94 0 105.47
05/02/21 16.40 15.80 18.50 0.67 0 147.36
04/02/21 20.60 8.60 13.80 0.54 0 171.92
03/02/21 27.60 8.60 0.00 0.36 8 215.32
02/02/21 22.40 11.20 0.00 0.46 7 214.55
01/02/21 24.60 9.70 0.00 0.48 6 204.34
31/01/21 27.20 8.60 0.00 0.41 5 183.85
30/01/21 24.40 8.60 0.00 0.53 4 134.69
29/01/21 26.50 11.20 0.00 0.46 3 213.48

 

CumulusUtils Version 3.0.1 - generated at 22/01/2022 18:01 - © Hans Rottier
Science background here. - NOTE: Behavioural testing still under way!
Prediction courtesy of https://www.yourweather.co.uk/